createdAt,value
2018-03-03T00:01:12.561Z,-1.10
2018-03-03T00:03:38.748Z,-1.20
2018-03-03T00:06:05.142Z,-1.10
2018-03-03T00:08:31.325Z,-1.10
2018-03-03T00:10:57.544Z,-1.20
2018-03-03T00:13:23.885Z,-1.20
2018-03-03T00:15:50.098Z,-1.10
2018-03-03T00:18:17.769Z,-1.10
2018-03-03T00:20:44.689Z,-1.10
2018-03-03T00:23:11.163Z,-1.10
2018-03-03T00:25:37.432Z,-1.00
2018-03-03T00:28:03.679Z,-1.00
2018-03-03T00:30:30.409Z,-1.10
2018-03-03T00:32:56.624Z,-1.00
2018-03-03T00:35:22.996Z,-1.00
2018-03-03T00:37:50.037Z,-1.10
2018-03-03T00:40:17.221Z,-1.00
2018-03-03T00:42:43.495Z,-1.00
2018-03-03T00:45:09.759Z,-1.00
2018-03-03T00:47:36.032Z,-1.10
2018-03-03T00:50:02.395Z,-1.10
2018-03-03T00:52:29.393Z,-1.10
2018-03-03T00:54:55.730Z,-1.10
2018-03-03T00:57:22.057Z,-1.10
2018-03-03T00:59:48.345Z,-1.00
2018-03-03T01:02:14.540Z,-1.10
2018-03-03T01:04:40.848Z,-1.00
2018-03-03T01:07:07.221Z,-1.10
2018-03-03T01:09:33.516Z,-1.10
2018-03-03T01:11:59.761Z,-1.10
2018-03-03T01:14:26.101Z,-1.00
2018-03-03T01:16:52.455Z,-1.00
2018-03-03T01:19:19.079Z,-1.00
2018-03-03T01:21:46.209Z,-1.00
2018-03-03T01:24:12.614Z,-1.00
2018-03-03T01:26:39.630Z,-1.00
2018-03-03T01:29:15.864Z,-1.00
2018-03-03T01:31:42.240Z,-0.90
2018-03-03T01:34:08.918Z,-0.90
2018-03-03T01:36:35.474Z,-0.90
2018-03-03T01:39:01.720Z,-1.00
2018-03-03T01:41:29.782Z,-1.00
2018-03-03T01:43:56.218Z,-1.00
2018-03-03T01:49:02.587Z,-1.00
2018-03-03T01:51:41.075Z,-1.00
2018-03-03T01:54:09.042Z,-1.00
2018-03-03T01:56:35.393Z,-1.10
2018-03-03T01:59:01.901Z,-1.10
2018-03-03T02:01:29.022Z,-1.10
2018-03-03T02:03:55.292Z,-1.10
2018-03-03T02:06:21.488Z,-1.10
2018-03-03T02:08:47.922Z,-1.10
2018-03-03T02:11:14.373Z,-1.10
2018-03-03T02:13:40.934Z,-1.10
2018-03-03T02:16:09.432Z,-1.10
2018-03-03T02:18:35.968Z,-1.10
2018-03-03T02:21:02.348Z,-1.10
2018-03-03T02:23:28.621Z,-1.00
2018-03-03T02:25:55.040Z,-1.00
2018-03-03T02:28:21.274Z,-1.00
2018-03-03T02:30:47.529Z,-1.00
2018-03-03T02:33:13.932Z,-1.00
2018-03-03T02:35:49.267Z,-1.00
2018-03-03T02:38:15.455Z,-1.00
2018-03-03T02:40:41.668Z,-1.00
2018-03-03T02:43:08.066Z,-1.10
2018-03-03T02:45:34.293Z,-1.10
2018-03-03T02:48:01.362Z,-1.10
2018-03-03T02:50:27.770Z,-1.10
2018-03-03T02:52:54.329Z,-1.10
2018-03-03T02:55:20.599Z,-1.10
2018-03-03T02:57:48.644Z,-1.20
2018-03-03T03:00:14.867Z,-1.20
2018-03-03T03:02:41.232Z,-1.20
2018-03-03T03:05:07.504Z,-1.20
2018-03-03T03:07:34.482Z,-1.20
2018-03-03T03:10:00.693Z,-1.20
2018-03-03T03:12:27.054Z,-1.30
2018-03-03T03:14:53.328Z,-1.30
2018-03-03T03:17:19.615Z,-1.20
2018-03-03T03:19:45.950Z,-1.20
2018-03-03T03:22:12.240Z,-1.20
2018-03-03T03:24:38.614Z,-1.20
2018-03-03T03:27:05.038Z,-1.20
2018-03-03T03:29:31.428Z,-1.20
2018-03-03T03:31:57.674Z,-1.20
2018-03-03T03:34:24.173Z,-1.20
2018-03-03T03:36:50.445Z,-1.20
2018-03-03T03:39:16.694Z,-1.20
2018-03-03T03:41:43.290Z,-1.20
2018-03-03T03:44:10.412Z,-1.10
2018-03-03T03:46:36.646Z,-1.20
2018-03-03T03:49:02.986Z,-1.10
2018-03-03T03:51:29.349Z,-1.20
2018-03-03T03:53:55.553Z,-1.20
2018-03-03T03:56:21.773Z,-1.20
2018-03-03T03:58:48.818Z,-1.20
2018-03-03T04:01:15.020Z,-1.20
2018-03-03T04:03:41.222Z,-1.20
2018-03-03T04:06:07.409Z,-1.30
2018-03-03T04:08:33.625Z,-1.20
2018-03-03T04:10:59.816Z,-1.20
2018-03-03T04:13:26.042Z,-1.20
2018-03-03T04:15:52.409Z,-1.20
2018-03-03T04:18:18.707Z,-1.20
2018-03-03T04:20:44.964Z,-1.30
2018-03-03T04:23:11.260Z,-1.30
2018-03-03T04:25:37.502Z,-1.30
2018-03-03T04:28:03.800Z,-1.20
2018-03-03T04:30:30.694Z,-1.30
2018-03-03T04:32:56.914Z,-1.20
2018-03-03T04:35:23.177Z,-1.20
2018-03-03T04:37:49.554Z,-1.30
2018-03-03T04:40:15.776Z,-1.30
2018-03-03T04:42:42.041Z,-1.30
2018-03-03T04:45:08.561Z,-1.30
2018-03-03T04:47:35.697Z,-1.40
2018-03-03T04:50:02.873Z,-1.30
2018-03-03T04:52:29.294Z,-1.30
2018-03-03T04:54:55.634Z,-1.30
2018-03-03T04:57:22.792Z,-1.30
2018-03-03T05:00:05.119Z,-1.30
2018-03-03T05:02:48.172Z,-1.30
2018-03-03T05:05:20.544Z,-1.30
2018-03-03T05:07:57.461Z,-1.30
2018-03-03T05:10:23.812Z,-1.40
2018-03-03T05:12:51.039Z,-1.30
2018-03-03T05:15:23.279Z,-1.30
2018-03-03T05:21:10.265Z,-1.30
2018-03-03T05:23:42.641Z,-1.30
2018-03-03T05:26:13.889Z,-1.40
2018-03-03T05:32:04.025Z,-1.40
2018-03-03T05:34:46.154Z,-1.40
2018-03-03T05:37:18.397Z,-1.40
2018-03-03T05:43:18.853Z,-1.40
2018-03-03T05:45:52.344Z,-1.40
2018-03-03T05:48:35.195Z,-1.50
2018-03-03T05:54:13.261Z,-1.50
2018-03-03T05:56:56.485Z,-1.50
2018-03-03T05:59:29.700Z,-1.50
2018-03-03T06:02:07.013Z,-1.50
2018-03-03T06:08:01.747Z,-1.50
2018-03-03T06:10:29.725Z,-1.50
2018-03-03T06:12:56.500Z,-1.50
2018-03-03T06:15:22.824Z,-1.50
2018-03-03T06:17:49.167Z,-1.50
2018-03-03T06:20:15.556Z,-1.50
2018-03-03T06:22:41.851Z,-1.50
2018-03-03T06:25:08.856Z,-1.60
2018-03-03T06:27:35.049Z,-1.60
2018-03-03T06:30:01.305Z,-1.60
2018-03-03T06:32:28.270Z,-1.40
2018-03-03T06:34:55.258Z,-1.50
2018-03-03T06:37:22.640Z,-1.50
2018-03-03T06:39:49.003Z,-1.50
2018-03-03T06:42:16.258Z,-1.50
2018-03-03T06:44:42.482Z,-1.60
2018-03-03T06:47:08.820Z,-1.50
2018-03-03T06:49:36.234Z,-1.40
2018-03-03T06:52:02.510Z,-1.40
2018-03-03T06:54:29.455Z,-1.40
2018-03-03T06:56:56.459Z,-1.40
2018-03-03T06:59:22.791Z,-1.40
2018-03-03T07:01:49.088Z,-1.40
2018-03-03T07:04:15.391Z,-1.30
2018-03-03T07:06:41.737Z,-1.30
2018-03-03T07:09:07.989Z,-1.30
2018-03-03T07:11:34.260Z,-1.20
2018-03-03T07:14:00.756Z,-1.10
2018-03-03T07:16:26.996Z,-0.90
2018-03-03T07:18:53.254Z,-0.70
2018-03-03T07:21:19.524Z,-0.70
2018-03-03T07:23:45.817Z,-0.50
2018-03-03T07:26:12.016Z,-0.30
2018-03-03T07:28:38.496Z,0.00
2018-03-03T07:31:04.743Z,-0.20
2018-03-03T07:33:31.166Z,0.00
2018-03-03T07:35:57.423Z,0.10
2018-03-03T07:38:24.573Z,0.40
2018-03-03T07:40:51.488Z,0.40
2018-03-03T07:43:17.708Z,0.40
2018-03-03T07:45:43.950Z,0.20
2018-03-03T07:48:10.207Z,0.00
2018-03-03T07:50:36.512Z,-0.10
2018-03-03T07:53:02.761Z,-0.20
2018-03-03T07:55:29.025Z,-0.30
2018-03-03T07:57:55.222Z,-0.40
2018-03-03T08:00:21.421Z,-0.30
2018-03-03T08:02:47.656Z,-0.30
2018-03-03T08:05:13.910Z,-0.20
2018-03-03T08:07:40.171Z,-0.20
2018-03-03T08:10:07.341Z,-0.30
2018-03-03T08:12:34.255Z,-0.40
2018-03-03T08:15:00.467Z,-0.40
2018-03-03T08:17:26.877Z,-0.40
2018-03-03T08:19:53.055Z,-0.30
2018-03-03T08:22:19.292Z,-0.20
2018-03-03T08:24:45.749Z,-0.20
2018-03-03T08:27:11.952Z,0.00
2018-03-03T08:29:38.908Z,-0.20
2018-03-03T08:32:05.990Z,-0.20
2018-03-03T08:34:32.345Z,-0.20
2018-03-03T08:36:58.553Z,-0.30
2018-03-03T08:39:24.780Z,-0.20
2018-03-03T08:41:51.257Z,0.00
2018-03-03T08:44:17.580Z,-0.20
2018-03-03T08:49:17.458Z,0.00
2018-03-03T08:51:44.906Z,0.10
2018-03-03T08:54:11.125Z,0.10
2018-03-03T08:56:37.541Z,0.10
2018-03-03T08:59:03.833Z,0.00
2018-03-03T09:01:30.092Z,-0.10
2018-03-03T09:03:56.341Z,-0.10
2018-03-03T09:06:22.590Z,0.00
2018-03-03T09:08:50.062Z,0.00
2018-03-03T09:11:16.464Z,0.10
2018-03-03T09:13:43.503Z,0.20
2018-03-03T09:16:09.728Z,0.20
2018-03-03T09:18:36.126Z,0.20
2018-03-03T09:21:02.381Z,0.20
2018-03-03T09:23:29.523Z,0.40
2018-03-03T09:25:55.869Z,0.40
2018-03-03T09:28:22.420Z,0.40
2018-03-03T09:30:49.364Z,0.60
2018-03-03T09:33:15.636Z,0.60
2018-03-03T09:35:42.703Z,0.60
2018-03-03T09:38:08.913Z,0.60
2018-03-03T09:40:35.200Z,0.70
2018-03-03T09:43:01.575Z,0.70
2018-03-03T09:45:27.820Z,0.80
2018-03-03T09:47:54.064Z,0.90
2018-03-03T09:50:20.380Z,1.00
2018-03-03T09:52:46.555Z,1.00
2018-03-03T09:55:12.887Z,1.00
2018-03-03T09:57:39.306Z,0.90
2018-03-03T10:00:05.641Z,0.90
2018-03-03T10:02:31.853Z,1.00
2018-03-03T10:04:58.792Z,1.10
2018-03-03T10:07:25.262Z,1.10
2018-03-03T10:09:51.562Z,1.20
2018-03-03T10:12:17.736Z,1.20
2018-03-03T10:14:44.096Z,1.20
2018-03-03T10:17:11.380Z,1.30
2018-03-03T10:19:37.636Z,1.20
2018-03-03T10:22:03.862Z,1.30
2018-03-03T10:24:30.369Z,1.30
2018-03-03T10:26:56.648Z,1.40
2018-03-03T10:29:22.816Z,1.40
2018-03-03T10:31:49.473Z,1.40
2018-03-03T10:34:16.450Z,1.60
2018-03-03T10:36:42.696Z,1.60
2018-03-03T10:39:08.898Z,1.60
2018-03-03T10:41:35.118Z,1.60
2018-03-03T10:44:01.512Z,1.70
2018-03-03T10:46:27.746Z,1.70
2018-03-03T10:48:54.196Z,1.70
2018-03-03T10:51:20.432Z,1.70
2018-03-03T10:53:46.665Z,1.70
2018-03-03T10:56:13.026Z,1.80
2018-03-03T10:58:39.364Z,1.70
2018-03-03T11:01:05.513Z,1.80
2018-03-03T11:03:32.045Z,1.80
2018-03-03T11:05:58.215Z,1.80
2018-03-03T11:08:24.394Z,1.60
2018-03-03T11:10:50.707Z,1.70
2018-03-03T11:13:17.802Z,2.00
2018-03-03T11:15:44.063Z,2.00
2018-03-03T11:18:10.233Z,2.10
2018-03-03T11:20:36.433Z,2.10
2018-03-03T11:23:02.728Z,2.10
2018-03-03T11:25:29.672Z,2.20
2018-03-03T11:27:55.997Z,2.20
2018-03-03T11:30:22.217Z,2.30
2018-03-03T11:32:48.429Z,2.30
2018-03-03T11:35:15.494Z,2.20
2018-03-03T11:37:41.972Z,2.10
2018-03-03T11:40:08.193Z,2.20
2018-03-03T11:42:34.396Z,2.30
2018-03-03T11:45:00.831Z,2.40
2018-03-03T11:47:27.126Z,2.50
2018-03-03T11:49:53.251Z,2.40
2018-03-03T11:52:20.108Z,2.60
2018-03-03T11:54:46.301Z,2.40
2018-03-03T11:57:12.502Z,2.60
2018-03-03T11:59:39.557Z,2.40
2018-03-03T12:02:05.881Z,2.30
2018-03-03T12:04:32.057Z,2.50
2018-03-03T12:06:58.264Z,2.70
2018-03-03T12:09:26.226Z,3.10
2018-03-03T12:11:53.482Z,3.10
2018-03-03T12:14:19.667Z,3.10
2018-03-03T12:16:45.923Z,3.20
2018-03-03T12:19:13.050Z,3.00
2018-03-03T12:21:40.087Z,3.00
2018-03-03T12:24:06.327Z,2.90
2018-03-03T12:26:32.508Z,3.20
2018-03-03T12:29:14.788Z,3.50
2018-03-03T12:31:41.010Z,3.60
2018-03-03T12:34:07.220Z,3.80
2018-03-03T12:36:33.404Z,3.80
2018-03-03T12:38:59.879Z,4.00
2018-03-03T12:41:26.057Z,4.10
2018-03-03T12:43:52.256Z,4.00
2018-03-03T12:46:19.339Z,4.10
2018-03-03T12:48:45.572Z,4.10
2018-03-03T12:51:11.788Z,4.30
2018-03-03T12:53:38.076Z,4.30
2018-03-03T12:56:04.272Z,4.40
2018-03-03T12:58:30.564Z,4.50
2018-03-03T13:00:56.867Z,4.00
2018-03-03T13:03:23.084Z,3.70
2018-03-03T13:05:49.319Z,4.20
2018-03-03T13:08:15.627Z,4.40
2018-03-03T13:10:41.794Z,4.50
2018-03-03T13:13:08.001Z,4.60
2018-03-03T13:15:34.329Z,4.60
2018-03-03T13:18:00.627Z,4.60
2018-03-03T13:20:26.802Z,4.50
2018-03-03T13:22:53.005Z,4.50
2018-03-03T13:25:19.293Z,4.40
2018-03-03T13:27:45.512Z,4.30
2018-03-03T13:30:11.702Z,4.20
2018-03-03T13:32:38.083Z,3.90
2018-03-03T13:35:04.259Z,4.00
2018-03-03T13:37:31.161Z,4.30
2018-03-03T13:39:57.492Z,4.20
2018-03-03T13:42:23.688Z,4.10
2018-03-03T13:44:50.604Z,4.00
2018-03-03T13:47:16.763Z,3.90
2018-03-03T13:49:43.526Z,3.90
2018-03-03T13:52:10.436Z,4.00
2018-03-03T13:54:36.612Z,4.00
2018-03-03T13:57:02.924Z,4.10
2018-03-03T13:59:29.165Z,4.10
2018-03-03T14:01:55.341Z,4.10
2018-03-03T14:04:22.452Z,4.10
2018-03-03T14:06:48.695Z,4.10
2018-03-03T14:09:14.858Z,4.10
2018-03-03T14:11:41.053Z,4.00
2018-03-03T14:14:07.318Z,4.00
2018-03-03T14:16:33.621Z,3.90
2018-03-03T14:18:59.786Z,3.90
2018-03-03T14:21:26.172Z,3.80
2018-03-03T14:23:52.375Z,3.80
2018-03-03T14:26:18.564Z,3.70
2018-03-03T14:28:44.881Z,3.70
2018-03-03T14:31:11.074Z,3.70
2018-03-03T14:33:37.968Z,3.80
2018-03-03T14:36:04.390Z,3.80
2018-03-03T14:38:30.552Z,3.70
2018-03-03T14:40:56.753Z,3.60
2018-03-03T14:43:23.038Z,3.70
2018-03-03T14:45:49.276Z,3.60
2018-03-03T14:48:15.456Z,3.60
2018-03-03T14:50:41.637Z,3.50
2018-03-03T14:53:07.820Z,3.60
2018-03-03T14:55:34.782Z,3.60
2018-03-03T14:58:00.960Z,3.60
2018-03-03T15:00:27.993Z,3.40
2018-03-03T15:02:54.911Z,3.40
2018-03-03T15:05:21.348Z,3.40
2018-03-03T15:07:47.601Z,3.50
2018-03-03T15:10:13.864Z,3.50
2018-03-03T15:12:40.058Z,3.50
2018-03-03T15:15:06.229Z,3.60
2018-03-03T15:17:32.616Z,3.40
2018-03-03T15:19:58.822Z,3.60
2018-03-03T15:22:25.014Z,3.60
2018-03-03T15:24:51.367Z,3.60
2018-03-03T15:27:18.268Z,3.80
2018-03-03T15:29:45.488Z,3.70
2018-03-03T15:32:11.756Z,3.70
2018-03-03T15:34:38.024Z,3.80
2018-03-03T15:37:04.184Z,3.80
2018-03-03T15:39:30.415Z,3.80
2018-03-03T15:41:56.606Z,3.90
2018-03-03T15:44:22.810Z,3.70
2018-03-03T15:46:50.824Z,3.80
2018-03-03T15:49:17.051Z,3.80
2018-03-03T15:51:44.152Z,3.50
2018-03-03T15:54:10.323Z,3.50
2018-03-03T15:56:36.525Z,3.70
2018-03-03T15:59:02.905Z,3.70
2018-03-03T16:01:29.108Z,3.60
2018-03-03T16:03:55.276Z,3.50
2018-03-03T16:06:21.805Z,3.50
2018-03-03T16:08:47.972Z,3.40
2018-03-03T16:11:14.164Z,3.10
2018-03-03T16:13:41.268Z,3.00
2018-03-03T16:16:07.695Z,3.10
2018-03-03T16:18:33.881Z,3.00
2018-03-03T16:21:00.810Z,2.80
2018-03-03T16:23:27.233Z,2.80
2018-03-03T16:25:53.422Z,2.70
2018-03-03T16:28:19.639Z,2.80
2018-03-03T16:30:45.825Z,2.70
2018-03-03T16:33:13.196Z,2.60
2018-03-03T16:35:39.372Z,2.50
2018-03-03T16:38:05.593Z,2.40
2018-03-03T16:40:31.906Z,2.40
2018-03-03T16:42:59.196Z,2.40
2018-03-03T16:45:25.366Z,2.30
2018-03-03T16:47:51.736Z,2.20
2018-03-03T16:50:18.016Z,2.20
2018-03-03T16:52:44.267Z,2.10
2018-03-03T16:55:10.588Z,2.10
2018-03-03T16:57:36.825Z,2.00
2018-03-03T17:00:03.081Z,1.90
2018-03-03T17:02:29.264Z,1.90
2018-03-03T17:04:56.481Z,1.90
2018-03-03T17:07:22.688Z,1.70
2018-03-03T17:09:48.909Z,1.70
2018-03-03T17:12:15.418Z,1.60
2018-03-03T17:14:41.635Z,1.60
2018-03-03T17:17:08.396Z,1.50
2018-03-03T17:19:34.651Z,1.50
2018-03-03T17:22:01.037Z,1.40
2018-03-03T17:24:27.271Z,1.40
2018-03-03T17:26:53.460Z,1.30
2018-03-03T17:29:20.698Z,1.20
2018-03-03T17:31:47.492Z,1.20
2018-03-03T17:34:13.872Z,1.20
2018-03-03T17:36:40.089Z,1.10
2018-03-03T17:39:06.630Z,1.10
2018-03-03T17:41:32.868Z,1.00
2018-03-03T17:43:59.065Z,1.00
2018-03-03T17:46:25.470Z,0.90
2018-03-03T17:48:51.685Z,1.00
2018-03-03T17:51:17.884Z,0.90
2018-03-03T17:53:44.294Z,0.80
2018-03-03T17:56:10.489Z,0.80
2018-03-03T17:58:37.430Z,0.70
2018-03-03T18:01:03.689Z,0.70
2018-03-03T18:03:29.894Z,0.70
2018-03-03T18:05:56.077Z,0.70
2018-03-03T18:08:23.034Z,0.60
2018-03-03T18:10:50.128Z,0.60
2018-03-03T18:13:33.136Z,0.60
2018-03-03T18:16:00.268Z,0.50
2018-03-03T18:18:26.506Z,0.50
2018-03-03T18:20:52.709Z,0.60
2018-03-03T18:23:19.422Z,0.50
2018-03-03T18:25:45.615Z,0.50
2018-03-03T18:28:11.816Z,0.40
2018-03-03T18:30:38.749Z,0.40
2018-03-03T18:33:05.552Z,0.40
2018-03-03T18:35:31.700Z,0.40
2018-03-03T18:37:57.889Z,0.30
2018-03-03T18:40:24.309Z,0.40
2018-03-03T18:42:51.480Z,0.50
2018-03-03T18:45:17.637Z,0.40
2018-03-03T18:47:44.022Z,0.50
2018-03-03T18:50:10.246Z,0.50
2018-03-03T18:52:37.172Z,0.60
2018-03-03T18:55:03.369Z,0.60
2018-03-03T18:57:29.760Z,0.70
2018-03-03T18:59:55.980Z,0.70
2018-03-03T19:02:22.227Z,0.70
2018-03-03T19:04:48.559Z,0.70
2018-03-03T19:07:14.927Z,0.80
2018-03-03T19:09:41.317Z,0.80
2018-03-03T19:12:07.757Z,0.80
2018-03-03T19:14:33.961Z,0.90
2018-03-03T19:17:00.150Z,0.90
2018-03-03T19:19:27.218Z,0.90
2018-03-03T19:21:54.998Z,0.90
2018-03-03T19:24:22.523Z,0.90
2018-03-03T19:26:49.433Z,1.00
2018-03-03T19:29:15.618Z,1.00
2018-03-03T19:31:41.993Z,1.00
2018-03-03T19:34:08.161Z,1.00
2018-03-03T19:36:34.336Z,1.00
2018-03-03T19:39:00.542Z,1.00
2018-03-03T19:41:26.753Z,1.00
2018-03-03T19:43:53.048Z,1.00
2018-03-03T19:46:19.260Z,1.10
2018-03-03T19:48:45.452Z,1.10
2018-03-03T19:51:12.382Z,1.10
2018-03-03T19:53:39.564Z,1.10
2018-03-03T19:56:05.884Z,1.10
2018-03-03T19:58:32.065Z,1.10
2018-03-03T20:00:58.308Z,1.10
2018-03-03T20:03:25.247Z,1.10
2018-03-03T20:05:51.511Z,1.10
2018-03-03T20:08:17.730Z,1.10
2018-03-03T20:10:43.950Z,1.10
2018-03-03T20:13:10.201Z,1.10
2018-03-03T20:15:36.406Z,1.20
2018-03-03T20:18:03.370Z,1.10
2018-03-03T20:20:29.936Z,1.20
2018-03-03T20:22:56.281Z,1.20
2018-03-03T20:25:22.819Z,1.20
2018-03-03T20:27:49.071Z,1.20
2018-03-03T20:30:15.578Z,1.30
2018-03-03T20:32:41.781Z,1.30
2018-03-03T20:35:07.964Z,1.30
2018-03-03T20:37:34.274Z,1.30
2018-03-03T20:40:01.209Z,1.30
2018-03-03T20:42:28.232Z,1.30
2018-03-03T20:44:54.491Z,1.30
2018-03-03T20:47:20.846Z,1.30
2018-03-03T20:49:47.958Z,1.30
2018-03-03T20:52:14.216Z,1.30
2018-03-03T20:54:40.642Z,1.30
2018-03-03T20:57:06.865Z,1.30
2018-03-03T20:59:33.107Z,1.30
2018-03-03T21:02:00.048Z,1.40
2018-03-03T21:04:26.381Z,1.40
2018-03-03T21:06:53.168Z,1.40
2018-03-03T21:09:19.420Z,1.40
2018-03-03T21:11:54.636Z,1.40
2018-03-03T21:14:22.161Z,1.40
2018-03-03T21:16:48.440Z,1.40
2018-03-03T21:19:14.724Z,1.50
2018-03-03T21:21:41.010Z,1.40
2018-03-03T21:24:07.432Z,1.40
2018-03-03T21:26:38.145Z,1.40
2018-03-03T21:29:05.561Z,1.40
2018-03-03T21:31:31.826Z,1.40
2018-03-03T21:33:58.128Z,1.40
2018-03-03T21:36:24.637Z,1.40
2018-03-03T21:38:50.833Z,1.30
2018-03-03T21:41:17.014Z,1.30
2018-03-03T21:43:43.439Z,1.30
2018-03-03T21:46:09.639Z,1.30
2018-03-03T21:48:35.852Z,1.30
2018-03-03T21:51:02.410Z,1.30
2018-03-03T21:53:28.746Z,1.20
2018-03-03T21:55:55.018Z,1.20
2018-03-03T21:58:21.224Z,1.30
2018-03-03T22:00:47.877Z,1.20
2018-03-03T22:03:14.881Z,1.20
2018-03-03T22:05:41.153Z,1.20
2018-03-03T22:08:07.412Z,1.20
2018-03-03T22:10:34.514Z,1.20
2018-03-03T22:13:00.708Z,1.10
2018-03-03T22:15:26.917Z,1.20
2018-03-03T22:17:53.313Z,1.10
2018-03-03T22:20:20.306Z,1.10
2018-03-03T22:22:46.513Z,1.10
2018-03-03T22:25:13.497Z,1.10
2018-03-03T22:27:39.885Z,1.10
2018-03-03T22:30:07.120Z,1.10
2018-03-03T22:32:33.357Z,1.20
2018-03-03T22:34:59.652Z,1.10
2018-03-03T22:37:25.938Z,1.10
2018-03-03T22:39:52.178Z,1.10
2018-03-03T22:42:18.384Z,1.10
2018-03-03T22:44:45.475Z,1.10
2018-03-03T22:47:12.024Z,1.10
2018-03-03T22:49:38.958Z,1.10
2018-03-03T22:52:05.912Z,1.10
2018-03-03T22:54:32.381Z,1.10
2018-03-03T22:56:58.588Z,1.10
2018-03-03T22:59:24.804Z,1.10
2018-03-03T23:01:51.221Z,1.10
2018-03-03T23:04:17.420Z,1.10
2018-03-03T23:06:44.380Z,1.10
2018-03-03T23:09:10.592Z,1.10
2018-03-03T23:11:36.803Z,1.10
2018-03-03T23:14:03.012Z,1.10
2018-03-03T23:16:29.954Z,1.10
2018-03-03T23:18:56.257Z,1.10
2018-03-03T23:21:22.480Z,1.10
2018-03-03T23:23:48.718Z,1.10
2018-03-03T23:26:15.059Z,1.10
2018-03-03T23:28:41.344Z,1.10
2018-03-03T23:31:07.530Z,1.10
2018-03-03T23:33:33.788Z,1.10
2018-03-03T23:36:00.007Z,1.10
2018-03-03T23:38:26.232Z,1.10
2018-03-03T23:40:53.203Z,1.10
2018-03-03T23:43:20.434Z,1.20
2018-03-03T23:45:47.409Z,1.10
2018-03-03T23:48:13.592Z,1.10
2018-03-03T23:50:39.952Z,1.20
2018-03-03T23:53:06.230Z,1.20
2018-03-03T23:55:33.176Z,1.20
2018-03-03T23:58:00.301Z,1.20
